Etusivu
METAR-TAF:

METAR-TAF

Lentoasemat :

Alexandria, Louisiana, Yhdysvallat

Leveyspiiri: 31-23-42N, Pituuspiiri: 092-17-25W, korkeus merenpinnasta: 34 m

Tämänhetkinen sää

Tämä raportti tehtiin 11 minuuttia sitten, kello 06.11 UTC
tyyntä
Lämpötila 17°C
Kosteus 94%
Ilmanpaine 1015 hPa
Näkyvyys: 4.0 km
Hajonneita pilviä 9000 ft:n korkeudessa
Hajonneita pilviä 12000 ft:n korkeudessa
utua

METAR: KESF 050611Z AUTO 00000KT 2 1/2SM BR BKN090 BKN120 17/16 A2997 RMK AO2 VIS 1 1/2V4 T01670156

Aika: 01:22 (06:22 UTC)


TAF: puuttuu

Säähavainnot ja -ennusteet yli 4000 lentoasemalta (METAR- ja TAF-raportit).

Käytössä olevat sääasemat on merkitty karttaan keltaisilla ja punaisilla pisteillä.

Aseta hiiri pisteen päälle nähdäksesi sääaseman nimen.

Klikkaa sitten nähdäksesi säähavainnot ja -ennusteet.

Kartan vaihtaminen: klikkaa mustalla rastilla varustettuja vihreitä pisteitä, niin voit zoomata sisään; viivalla varustettua vihreää pistettä, niin voit zoomata ulos tai vihreitä nuolia, niin pääset viereisille kartoille.


METAR-TAF: